KHTL

Roscommon County - Blodgett Memorial Airport

Houghton Lake, Michigan, USA
METAR KHTL 181253Z AUTO 27006KT 10SM OVC029 M07/M09 A3003 RMK AO2 SLP189 T10671094
Observed Flight Rules
Jan-18 @ 12:53 UTC (an hour ago) Marginal Visual Flight Rules
Wind Visibility Clouds
270° at 6 knots 10 miles
  • Overcast at 2,900' AGL
Temperatures Readings
Current -7°C / 19°F
Dewpoint -9°C / 16°F
Humidity 86%
Altimeter 30.03" Hg
Pressure 1018.9 hPa
Elevation 351
METAR KHTL 181253Z AUTO 27006KT 10SM OVC029 M07/M09 A3003 RMK AO2 SLP189 T10671094
Observed Flight Rules
Jan-18 @ 12:53 UTC
(an hour ago)
MVFR
Wind Visibility
270° at 6 knots 10 miles
Clouds
  • Overcast at 2,900' AGL
Temperature Dewpoint
-7°C / 19°F -9°C / 16°F
Humidity Altimeter Pressure
86% 30.03" Hg 1018.9 hPa